Time;durP1;ratioP1;P1;durP2;ratioP2;P2;SDS_P1;SDS_P2;PMS_P1;PMS_P2;Temp;Humidity;BMP_temperature;BMP_pressure;BME280_temperature;BME280_humidity;BME280_pressure;Samples;Min_cycle;Max_cycle;Signal;HPM_P1;HPM_P2
2021/10/12 00:01:37;;;;;;;13.02;2.45;;;10.40;99.90;;;;;;5093588;28;20079;-66
2021/10/12 00:04:03;;;;;;;8.82;2.22;;;10.50;99.90;;;;;;5070917;28;20042;-66
2021/10/12 00:06:29;;;;;;;15.73;2.13;;;10.50;99.90;;;;;;5096354;28;20043;-67
2021/10/12 00:08:57;;;;;;;5.18;1.70;;;10.50;99.90;;;;;;5103631;28;20036;-67
2021/10/12 00:11:23;;;;;;;12.10;1.80;;;10.50;99.90;;;;;;5095853;28;20044;-67
2021/10/12 00:13:49;;;;;;;13.82;2.33;;;10.50;99.90;;;;;;5102969;28;20043;-67
2021/10/12 00:16:15;;;;;;;14.15;2.15;;;10.40;99.90;;;;;;5095687;28;20043;-67
2021/10/12 00:18:40;;;;;;;13.88;2.10;;;10.30;99.90;;;;;;5083980;28;20047;-67
2021/10/12 00:21:07;;;;;;;12.70;2.40;;;10.30;99.90;;;;;;5093308;28;20045;-67
2021/10/12 00:23:33;;;;;;;10.07;2.25;;;10.20;99.90;;;;;;5101760;28;20040;-67
2021/10/12 00:25:59;;;;;;;14.93;2.78;;;10.20;99.90;;;;;;5104077;28;20071;-67
2021/10/12 00:28:24;;;;;;;12.80;2.45;;;10.20;99.90;;;;;;5079049;28;20130;-68
2021/10/12 00:30:51;;;;;;;12.32;1.88;;;10.20;99.90;;;;;;5103993;28;20048;-66
2021/10/12 00:33:17;;;;;;;12.63;2.75;;;10.20;99.90;;;;;;5105709;28;20072;-67
2021/10/12 00:35:43;;;;;;;11.02;1.95;;;10.20;99.90;;;;;;5104759;28;20044;-67
2021/10/12 00:38:09;;;;;;;15.90;3.15;;;10.20;99.90;;;;;;5097492;28;20747;-67
2021/10/12 00:40:37;;;;;;;14.13;2.75;;;10.10;99.90;;;;;;5103303;28;20063;-66
2021/10/12 00:43:04;;;;;;;9.40;1.67;;;10.10;99.90;;;;;;5096709;28;20097;-67
2021/10/12 00:45:30;;;;;;;27.23;2.55;;;10.20;99.90;;;;;;5081416;28;20520;-67
2021/10/12 00:48:06;;;;;;;11.57;2.00;;;10.10;99.90;;;;;;5084959;28;20101;-67
2021/10/12 00:50:33;;;;;;;14.18;2.65;;;10.10;99.90;;;;;;5093052;28;20058;-67
2021/10/12 00:53:00;;;;;;;12.37;2.07;;;10.20;99.90;;;;;;5097599;28;20078;-67
2021/10/12 00:55:26;;;;;;;7.87;1.63;;;10.20;99.90;;;;;;5102085;28;20376;-66
2021/10/12 00:57:53;;;;;;;16.08;2.10;;;10.20;99.90;;;;;;5081039;28;20072;-66
2021/10/12 01:00:20;;;;;;;12.82;2.72;;;10.20;99.90;;;;;;5082249;28;20052;-68
2021/10/12 01:02:45;;;;;;;17.55;2.45;;;10.30;99.90;;;;;;5100958;28;20100;-67
2021/10/12 01:05:12;;;;;;;12.65;3.35;;;10.30;99.90;;;;;;5098082;28;20071;-67
2021/10/12 01:07:38;;;;;;;8.60;1.77;;;10.30;99.90;;;;;;5102288;28;20067;-69
2021/10/12 01:10:05;;;;;;;13.43;2.40;;;10.20;99.90;;;;;;5096118;28;20055;-71
2021/10/12 01:12:31;;;;;;;13.23;2.17;;;10.10;99.90;;;;;;5102876;28;20055;-71
2021/10/12 01:14:57;;;;;;;15.98;2.17;;;10.20;99.90;;;;;;5077638;28;20139;-69
2021/10/12 01:17:23;;;;;;;16.20;2.47;;;10.10;99.90;;;;;;5103148;28;20096;-69
2021/10/12 01:19:49;;;;;;;9.93;2.50;;;10.10;99.90;;;;;;5077829;28;20047;-69
2021/10/12 01:22:15;;;;;;;12.18;2.83;;;10.20;99.90;;;;;;5102494;28;20040;-68
2021/10/12 01:24:41;;;;;;;9.57;1.65;;;10.20;99.90;;;;;;5103660;28;20055;-68
2021/10/12 01:27:07;;;;;;;9.00;2.05;;;10.20;99.90;;;;;;5096844;28;20071;-68
2021/10/12 01:29:33;;;;;;;18.63;2.50;;;10.20;99.90;;;;;;5104635;28;20040;-68
2021/10/12 01:31:59;;;;;;;17.67;2.92;;;10.20;99.90;;;;;;5097177;28;20134;-68
2021/10/12 01:34:25;;;;;;;12.75;2.03;;;10.30;99.90;;;;;;5104522;28;20047;-68
2021/10/12 01:36:51;;;;;;;22.77;2.70;;;10.30;99.90;;;;;;5100521;28;20036;-68
2021/10/12 01:39:18;;;;;;;14.20;2.22;;;10.30;99.90;;;;;;5093036;28;20067;-67
2021/10/12 01:41:45;;;;;;;11.60;2.20;;;10.30;99.90;;;;;;5078286;28;20058;-68
2021/10/12 01:44:16;;;;;;;17.60;2.70;;;10.30;99.90;;;;;;5103183;28;20066;-67
2021/10/12 01:46:42;;;;;;;11.20;2.22;;;10.30;99.90;;;;;;5103302;28;20103;-67
2021/10/12 01:49:08;;;;;;;10.93;1.98;;;10.30;99.90;;;;;;5096262;28;20052;-67
2021/10/12 01:51:35;;;;;;;11.45;1.80;;;10.30;99.90;;;;;;5102981;28;20044;-68
2021/10/12 01:54:02;;;;;;;27.88;2.60;;;10.40;99.90;;;;;;5095936;28;20087;-69
2021/10/12 01:56:30;;;;;;;9.85;2.67;;;10.40;99.90;;;;;;5068738;28;20056;-71
2021/10/12 01:58:56;;;;;;;23.55;3.03;;;10.30;99.90;;;;;;5078295;28;20109;-71
2021/10/12 02:01:24;;;;;;;12.95;2.17;;;10.30;99.90;;;;;;5100619;28;20044;-70
2021/10/12 02:03:50;;;;;;;17.05;2.42;;;10.30;99.90;;;;;;5098484;28;20455;-69
2021/10/12 02:06:17;;;;;;;11.80;2.03;;;10.30;99.90;;;;;;5098111;28;20059;-68
2021/10/12 02:08:44;;;;;;;13.68;1.98;;;10.30;99.90;;;;;;5100090;28;20087;-69
2021/10/12 02:11:10;;;;;;;14.60;2.13;;;10.30;99.90;;;;;;5094921;28;20090;-69
2021/10/12 02:13:35;;;;;;;17.98;2.63;;;10.30;99.90;;;;;;5101605;28;20047;-69
2021/10/12 02:16:02;;;;;;;18.92;2.38;;;10.30;99.90;;;;;;5094545;28;20037;-67
2021/10/12 02:18:27;;;;;;;11.57;2.00;;;10.40;99.90;;;;;;5083497;28;20052;-67
2021/10/12 02:20:53;;;;;;;14.15;2.75;;;10.40;99.90;;;;;;5094167;28;20545;-68
2021/10/12 02:23:19;;;;;;;14.13;2.63;;;10.40;99.90;;;;;;5100638;28;20043;-68
2021/10/12 02:25:45;;;;;;;12.45;3.13;;;10.40;99.90;;;;;;5103832;28;20044;-67
2021/10/12 02:28:11;;;;;;;13.20;2.40;;;10.40;99.90;;;;;;5099535;28;20051;-68
2021/10/12 02:30:37;;;;;;;12.48;2.35;;;10.40;99.90;;;;;;5092690;28;20054;-68
2021/10/12 02:33:03;;;;;;;18.90;2.47;;;10.40;99.90;;;;;;5098297;28;20040;-67
2021/10/12 02:35:30;;;;;;;14.32;2.20;;;10.40;99.90;;;;;;5074591;28;20056;-68
2021/10/12 02:37:56;;;;;;;19.33;3.00;;;10.40;99.90;;;;;;5085703;28;20133;-68
2021/10/12 02:40:23;;;;;;;8.93;2.45;;;10.40;99.90;;;;;;5091922;28;20127;-68
2021/10/12 02:42:48;;;;;;;18.40;2.40;;;10.40;99.90;;;;;;5080892;28;20098;-68
2021/10/12 02:45:14;;;;;;;19.90;3.65;;;10.40;99.90;;;;;;5071038;28;20053;-70
2021/10/12 02:47:40;;;;;;;14.63;2.30;;;10.50;99.90;;;;;;5090232;28;20040;-70
2021/10/12 02:50:07;;;;;;;15.70;2.65;;;10.50;99.90;;;;;;5074001;28;20040;-71
2021/10/12 02:52:33;;;;;;;14.93;2.25;;;10.40;99.90;;;;;;5095945;28;20492;-70
2021/10/12 02:54:59;;;;;;;11.20;2.40;;;10.40;99.90;;;;;;5093634;28;20032;-70
2021/10/12 02:57:25;;;;;;;14.43;2.60;;;10.40;99.90;;;;;;5093010;28;20040;-71
2021/10/12 02:59:51;;;;;;;12.00;2.15;;;10.40;99.90;;;;;;5096586;28;20036;-71
2021/10/12 03:02:17;;;;;;;10.55;2.67;;;10.50;99.90;;;;;;5085803;28;20044;-71
2021/10/12 03:04:42;;;;;;;13.05;2.53;;;10.40;99.90;;;;;;5085624;28;20058;-71
2021/10/12 03:07:08;;;;;;;13.75;2.50;;;10.40;99.90;;;;;;5098565;28;20064;-71
2021/10/12 03:09:34;;;;;;;20.15;3.13;;;10.40;99.90;;;;;;5082387;28;20048;-70
2021/10/12 03:12:00;;;;;;;14.85;3.03;;;10.40;99.90;;;;;;5082539;28;20191;-69
2021/10/12 03:14:25;;;;;;;12.93;2.35;;;10.40;99.90;;;;;;5078571;28;20199;-69
2021/10/12 03:16:51;;;;;;;14.00;2.92;;;10.40;99.90;;;;;;5090948;28;20087;-68
2021/10/12 03:19:17;;;;;;;19.73;3.17;;;10.40;99.90;;;;;;5097582;28;20040;-69
2021/10/12 03:21:53;;;;;;;13.68;3.25;;;10.40;99.90;;;;;;5090448;28;20071;-69
2021/10/12 03:24:19;;;;;;;16.52;2.47;;;10.50;99.90;;;;;;5096967;28;20118;-69
2021/10/12 03:26:44;;;;;;;24.85;2.70;;;10.40;99.90;;;;;;5085244;28;20060;-68
2021/10/12 03:29:10;;;;;;;7.90;2.13;;;10.40;99.90;;;;;;5096097;28;20040;-69
2021/10/12 03:31:36;;;;;;;8.35;2.17;;;10.50;99.90;;;;;;5085109;28;20052;-69
2021/10/12 03:34:02;;;;;;;27.65;3.60;;;10.40;99.90;;;;;;5096539;28;20070;-69
2021/10/12 03:36:28;;;;;;;26.15;3.13;;;10.50;99.90;;;;;;5088858;28;20045;-69
2021/10/12 03:38:53;;;;;;;21.20;2.63;;;10.40;99.90;;;;;;5068373;28;20132;-69
2021/10/12 03:41:19;;;;;;;18.92;3.83;;;10.40;99.90;;;;;;5102640;28;20062;-69
2021/10/12 03:43:45;;;;;;;18.30;2.38;;;10.40;99.90;;;;;;5078057;28;20044;-69
2021/10/12 03:46:12;;;;;;;17.48;2.58;;;10.40;99.90;;;;;;5080875;28;20411;-69
2021/10/12 03:48:39;;;;;;;16.05;3.28;;;10.40;99.90;;;;;;5091617;28;20090;-68
2021/10/12 03:51:08;;;;;;;13.38;2.88;;;10.40;99.90;;;;;;5090054;28;20040;-67
2021/10/12 03:53:37;;;;;;;13.68;2.90;;;10.40;99.90;;;;;;5092776;28;20052;-68
2021/10/12 03:56:03;;;;;;;25.45;3.10;;;10.50;99.90;;;;;;5098895;28;20040;-67
2021/10/12 03:58:29;;;;;;;29.27;3.13;;;10.50;99.90;;;;;;5085138;28;20053;-68
2021/10/12 04:00:55;;;;;;;18.00;3.00;;;10.40;99.90;;;;;;5080428;28;20047;-71
2021/10/12 04:03:21;;;;;;;28.05;4.00;;;10.50;99.90;;;;;;5072022;28;20044;-71
2021/10/12 04:05:47;;;;;;;15.80;2.33;;;10.50;99.90;;;;;;5101369;28;20040;-71
2021/10/12 04:08:13;;;;;;;26.48;3.75;;;10.40;99.90;;;;;;5102104;28;20416;-68
2021/10/12 04:10:38;;;;;;;15.98;3.45;;;10.50;99.90;;;;;;5094609;28;20120;-67
2021/10/12 04:13:05;;;;;;;16.23;2.47;;;10.50;99.90;;;;;;5083654;28;20404;-68
2021/10/12 04:15:32;;;;;;;12.13;3.22;;;10.50;99.90;;;;;;5094867;28;20103;-67
2021/10/12 04:17:58;;;;;;;19.77;2.80;;;10.50;99.90;;;;;;5101956;28;20044;-67
2021/10/12 04:20:25;;;;;;;16.30;2.30;;;10.50;99.90;;;;;;5094551;28;20058;-66
2021/10/12 04:22:52;;;;;;;11.15;2.50;;;10.50;99.90;;;;;;5101554;28;20077;-65
2021/10/12 04:25:18;;;;;;;14.75;3.20;;;10.50;99.90;;;;;;5093285;28;20044;-65
2021/10/12 04:27:44;;;;;;;25.70;3.50;;;10.50;99.90;;;;;;5100768;28;20039;-65
2021/10/12 04:30:10;;;;;;;18.13;2.45;;;10.60;99.90;;;;;;5092893;28;20028;-66
2021/10/12 04:32:36;;;;;;;17.30;2.75;;;10.50;99.90;;;;;;5081746;28;20056;-65
2021/10/12 04:35:03;;;;;;;23.92;2.72;;;10.50;99.90;;;;;;5092621;28;20630;-65
2021/10/12 04:37:29;;;;;;;17.20;2.47;;;10.60;99.90;;;;;;5099786;28;20048;-66
2021/10/12 04:39:54;;;;;;;15.82;3.55;;;10.60;99.90;;;;;;5073695;28;20142;-65
2021/10/12 04:42:20;;;;;;;19.45;2.60;;;10.60;99.90;;;;;;5098976;28;20048;-66
2021/10/12 04:44:53;;;;;;;18.65;3.60;;;10.50;99.90;;;;;;5106228;28;20055;-66
2021/10/12 04:47:19;;;;;;;22.05;2.60;;;10.70;99.90;;;;;;5095277;28;20075;-66
2021/10/12 04:49:46;;;;;;;21.92;2.95;;;10.60;99.90;;;;;;5101750;28;20040;-65
2021/10/12 04:52:12;;;;;;;15.15;2.83;;;10.50;99.90;;;;;;5094725;28;20496;-65
2021/10/12 04:54:38;;;;;;;13.13;1.63;;;10.60;99.90;;;;;;5101144;28;20047;-65
2021/10/12 04:57:03;;;;;;;14.88;1.98;;;10.60;99.90;;;;;;5095501;28;20500;-66
2021/10/12 04:59:29;;;;;;;12.13;1.65;;;10.70;99.90;;;;;;5100595;28;20059;-66
2021/10/12 05:01:55;;;;;;;11.98;2.80;;;10.60;99.90;;;;;;5102042;28;20089;-66
2021/10/12 05:04:20;;;;;;;8.73;1.65;;;10.50;99.90;;;;;;5083077;28;20044;-65
2021/10/12 05:06:46;;;;;;;11.70;1.38;;;10.60;99.90;;;;;;5098055;28;20048;-65
2021/10/12 05:09:12;;;;;;;9.55;1.83;;;10.50;99.90;;;;;;5095991;28;20400;-65
2021/10/12 05:11:37;;;;;;;10.82;2.10;;;10.50;99.90;;;;;;5100937;28;20037;-65
2021/10/12 05:14:03;;;;;;;10.45;1.98;;;10.30;99.90;;;;;;5094411;28;20083;-65
2021/10/12 05:16:30;;;;;;;5.10;0.95;;;10.50;99.90;;;;;;5101172;28;20040;-66
2021/10/12 05:19:00;;;;;;;7.13;1.30;;;10.40;99.90;;;;;;5094305;28;20178;-66
2021/10/12 05:21:30;;;;;;;17.85;2.08;;;10.40;99.90;;;;;;5100917;28;20109;-66
2021/10/12 05:23:56;;;;;;;6.25;1.05;;;10.30;99.90;;;;;;5093927;28;20048;-66
2021/10/12 05:26:22;;;;;;;10.85;0.93;;;10.30;99.90;;;;;;5100172;28;20113;-66
2021/10/12 05:28:51;;;;;;;9.13;1.13;;;10.30;99.90;;;;;;5093312;28;20074;-66
2021/10/12 05:31:19;;;;;;;12.45;1.42;;;10.20;99.90;;;;;;5096113;28;20041;-66
2021/10/12 05:33:44;;;;;;;;;;;10.30;99.90;;;;;;5106460;28;20044;-66
2021/10/12 05:36:10;;;;;;;4.95;1.85;;;10.30;99.90;;;;;;5081243;28;19919;-66
2021/10/12 05:38:36;;;;;;;6.10;1.17;;;10.30;99.90;;;;;;5092491;28;20032;-66
2021/10/12 05:41:02;;;;;;;10.68;1.52;;;10.30;99.90;;;;;;5098695;28;20071;-66
2021/10/12 05:43:27;;;;;;;9.30;1.20;;;10.20;99.90;;;;;;5096102;28;20044;-66
2021/10/12 05:45:53;;;;;;;9.25;1.67;;;10.20;99.90;;;;;;5090984;28;20059;-67
2021/10/12 05:48:19;;;;;;;12.77;1.58;;;10.30;99.90;;;;;;5101830;28;20121;-66
2021/10/12 05:50:46;;;;;;;10.50;1.55;;;10.30;99.90;;;;;;5094619;28;20540;-66
2021/10/12 05:53:25;;;;;;;18.38;3.83;;;10.40;99.90;;;;;;5101637;28;20123;-66
2021/10/12 05:56:00;;;;;;;12.57;1.63;;;10.30;99.90;;;;;;5075704;28;20048;-66
2021/10/12 06:00:59;;;;;;;10.15;2.00;;;10.30;99.90;;;;;;5093662;28;20036;-66
2021/10/12 06:03:25;;;;;;;9.73;1.30;;;10.30;99.90;;;;;;5101010;28;20048;-66
2021/10/12 06:05:51;;;;;;;13.35;1.75;;;10.20;99.90;;;;;;5093784;28;20315;-66
2021/10/12 06:08:17;;;;;;;13.02;1.17;;;10.30;99.90;;;;;;5100906;28;20118;-66
2021/10/12 06:10:42;;;;;;;7.65;1.35;;;10.20;99.90;;;;;;5081904;28;20044;-66
2021/10/12 06:13:10;;;;;;;13.30;2.13;;;10.10;99.90;;;;;;5099562;28;20103;-65
2021/10/12 06:15:37;;;;;;;14.07;2.42;;;10.20;99.90;;;;;;5065872;28;20052;-66
2021/10/12 06:18:03;;;;;;;12.65;1.50;;;10.20;99.90;;;;;;5098335;28;20112;-65
2021/10/12 06:20:29;;;;;;;19.25;2.88;;;10.20;99.90;;;;;;5096589;28;20049;-65
2021/10/12 06:22:54;;;;;;;15.43;2.17;;;10.20;99.90;;;;;;5095325;28;20040;-66
2021/10/12 06:25:20;;;;;;;12.70;2.33;;;10.20;99.90;;;;;;5098032;28;20044;-66
2021/10/12 06:27:46;;;;;;;15.43;1.85;;;10.20;99.90;;;;;;5093262;28;20048;-66
2021/10/12 06:30:12;;;;;;;16.02;2.28;;;10.20;99.90;;;;;;5086202;28;20040;-65
2021/10/12 06:32:38;;;;;;;13.75;2.85;;;10.30;99.90;;;;;;5093011;28;20079;-65
2021/10/12 06:35:06;;;;;;;27.75;2.97;;;10.20;99.90;;;;;;5081702;28;20048;-65
2021/10/12 06:37:31;;;;;;;11.45;2.20;;;10.10;99.90;;;;;;5092877;28;20442;-65
2021/10/12 06:39:57;;;;;;;12.65;3.03;;;10.20;99.90;;;;;;5099535;28;20404;-66
2021/10/12 06:42:23;;;;;;;14.55;2.63;;;10.20;99.90;;;;;;5092354;28;20104;-66
2021/10/12 06:44:49;;;;;;;21.30;2.30;;;10.10;99.90;;;;;;5098645;28;20116;-66
2021/10/12 06:47:14;;;;;;;16.48;2.67;;;10.10;99.90;;;;;;5101526;28;20048;-66
2021/10/12 06:49:40;;;;;;;10.40;1.60;;;10.20;99.90;;;;;;5094748;28;20492;-66
2021/10/12 06:52:06;;;;;;;18.20;2.45;;;10.20;99.90;;;;;;5101765;28;20083;-66
2021/10/12 06:54:31;;;;;;;19.77;2.10;;;10.20;99.90;;;;;;5093457;28;20082;-66
2021/10/12 06:57:00;;;;;;;20.98;2.65;;;10.30;99.90;;;;;;5101044;28;20044;-65
2021/10/12 06:59:26;;;;;;;16.55;2.83;;;10.30;99.90;;;;;;5093671;28;20107;-66
2021/10/12 07:01:52;;;;;;;18.52;2.97;;;10.40;99.90;;;;;;5101314;28;20040;-66
2021/10/12 07:04:19;;;;;;;23.83;2.80;;;10.40;99.90;;;;;;5093973;28;20044;-66
2021/10/12 07:06:45;;;;;;;16.70;2.72;;;10.40;99.90;;;;;;5100913;28;20402;-66
2021/10/12 07:09:16;;;;;;;12.27;2.40;;;10.40;99.90;;;;;;5093847;28;20112;-66
2021/10/12 07:11:43;;;;;;;13.90;2.85;;;10.50;99.90;;;;;;5100395;28;20047;-67
2021/10/12 07:14:10;;;;;;;23.17;2.22;;;10.50;99.90;;;;;;5075519;28;20040;-66
2021/10/12 07:16:35;;;;;;;24.88;2.70;;;10.50;99.90;;;;;;5089994;28;20113;-66
2021/10/12 07:19:01;;;;;;;13.70;2.45;;;10.50;99.90;;;;;;5094747;28;20499;-66
2021/10/12 07:21:27;;;;;;;16.60;2.53;;;10.60;99.90;;;;;;5098447;28;20040;-66
2021/10/12 07:23:53;;;;;;;20.75;3.42;;;10.60;99.90;;;;;;5096997;28;20064;-65
2021/10/12 07:26:19;;;;;;;22.20;2.50;;;10.60;99.90;;;;;;5094838;28;20123;-65
2021/10/12 07:28:44;;;;;;;15.68;1.95;;;10.60;99.90;;;;;;5098163;28;20043;-66
2021/10/12 07:31:10;;;;;;;16.83;2.38;;;10.60;99.90;;;;;;5095754;28;20075;-66
2021/10/12 07:33:36;;;;;;;16.40;2.25;;;10.70;99.90;;;;;;5090806;28;20044;-66
2021/10/12 07:36:03;;;;;;;12.98;1.73;;;10.60;99.90;;;;;;5097549;28;20056;-66
2021/10/12 07:38:29;;;;;;;16.98;2.35;;;10.60;99.90;;;;;;5104502;28;20036;-66
2021/10/12 07:40:55;;;;;;;21.58;3.03;;;10.60;99.90;;;;;;5096464;28;20055;-66
2021/10/12 07:43:20;;;;;;;11.88;2.47;;;10.70;99.90;;;;;;5103672;28;20044;-66
2021/10/12 07:45:48;;;;;;;16.83;2.35;;;10.70;99.90;;;;;;5105669;28;20051;-66
2021/10/12 07:48:15;;;;;;;24.58;2.90;;;10.60;99.90;;;;;;5099591;28;20036;-66
2021/10/12 07:50:41;;;;;;;26.50;2.47;;;10.60;99.90;;;;;;5105925;28;20044;-66
2021/10/12 07:53:07;;;;;;;11.73;1.73;;;10.60;99.90;;;;;;5089265;28;20044;-66
2021/10/12 07:55:37;;;;;;;14.55;2.03;;;10.70;99.90;;;;;;5105000;28;20044;-66
2021/10/12 07:58:04;;;;;;;14.05;2.08;;;10.70;99.90;;;;;;5097914;28;20040;-66
2021/10/12 08:00:31;;;;;;;10.40;1.67;;;10.60;99.90;;;;;;5105623;28;20079;-66
2021/10/12 08:03:00;;;;;;;7.93;1.45;;;10.70;99.90;;;;;;5094815;28;20056;-66
2021/10/12 08:05:27;;;;;;;9.57;1.73;;;10.90;99.90;;;;;;5086980;28;20052;-66
2021/10/12 08:07:54;;;;;;;17.77;1.90;;;10.80;99.90;;;;;;5097625;28;20446;-66
2021/10/12 08:10:21;;;;;;;14.05;1.38;;;10.80;99.90;;;;;;5103812;28;20081;-66
2021/10/12 08:12:49;;;;;;;15.32;2.45;;;10.80;99.90;;;;;;5080846;28;20515;-66
2021/10/12 08:15:15;;;;;;;9.00;1.90;;;10.80;99.90;;;;;;5104608;28;20036;-66
2021/10/12 08:17:41;;;;;;;10.27;1.92;;;10.80;99.90;;;;;;5097196;28;20048;-66
2021/10/12 08:20:07;;;;;;;7.43;1.27;;;11.00;99.90;;;;;;5104019;28;20040;-66
2021/10/12 08:22:33;;;;;;;12.45;2.03;;;10.80;99.90;;;;;;5097477;28;20090;-66
2021/10/12 08:24:59;;;;;;;11.02;1.80;;;10.80;99.90;;;;;;5102538;28;20040;-66
2021/10/12 08:27:25;;;;;;;12.63;2.20;;;10.70;99.90;;;;;;5099223;28;20063;-66
2021/10/12 08:29:50;;;;;;;9.88;1.30;;;10.80;99.90;;;;;;5082486;28;20123;-66
2021/10/12 08:32:16;;;;;;;10.23;1.52;;;10.90;99.90;;;;;;5103748;28;20055;-66
2021/10/12 08:34:42;;;;;;;9.20;1.63;;;11.10;99.90;;;;;;5085135;28;20047;-66
2021/10/12 08:37:08;;;;;;;9.13;2.08;;;11.00;99.90;;;;;;5103863;28;20044;-67
2021/10/12 08:39:34;;;;;;;12.30;1.35;;;10.90;99.90;;;;;;5096996;28;20058;-66
2021/10/12 08:42:25;;;;;;;8.43;1.30;;;11.00;99.90;;;;;;5103037;28;20051;-66
2021/10/12 08:45:05;;;;;;;6.45;1.40;;;10.90;99.90;;;;;;5089966;28;20049;-66
2021/10/12 08:47:32;;;;;;;8.05;1.30;;;10.90;99.90;;;;;;5096276;28;20069;-66
2021/10/12 08:50:00;;;;;;;5.88;0.80;;;10.70;99.90;;;;;;5101861;28;20043;-66
2021/10/12 08:52:27;;;;;;;9.77;1.50;;;10.70;99.90;;;;;;5102629;28;20072;-67
2021/10/12 08:54:54;;;;;;;7.93;1.48;;;10.70;99.90;;;;;;5103176;28;20032;-67
2021/10/12 08:57:33;;;;;;;7.03;1.55;;;10.70;99.90;;;;;;5100883;28;20054;-67
2021/10/12 09:00:11;;;;;;;10.88;1.30;;;10.70;99.90;;;;;;5103006;28;20032;-67
2021/10/12 09:02:56;;;;;;;5.60;0.98;;;10.60;99.90;;;;;;5102349;28;20067;-67
2021/10/12 09:05:25;;;;;;;3.22;0.93;;;10.60;99.90;;;;;;5100697;28;20044;-66
2021/10/12 09:07:52;;;;;;;5.45;0.90;;;10.50;99.90;;;;;;5103280;28;20043;-66
2021/10/12 09:10:23;;;;;;;5.47;1.15;;;10.40;99.90;;;;;;5101711;28;20105;-66
2021/10/12 09:12:49;;;;;;;9.70;1.23;;;10.50;99.90;;;;;;5101448;28;20044;-66
2021/10/12 09:15:18;;;;;;;6.50;0.93;;;10.70;99.90;;;;;;5102635;28;20079;-66
2021/10/12 09:17:49;;;;;;;6.10;1.13;;;10.50;99.90;;;;;;5099701;28;20062;-66
2021/10/12 09:20:15;;;;;;;9.38;1.55;;;10.50;99.90;;;;;;5103266;28;20052;-66
2021/10/12 09:23:13;;;;;;;4.28;0.98;;;10.70;99.90;;;;;;5098092;28;20043;-67
2021/10/12 09:25:44;;;;;;;3.38;0.77;;;10.70;99.90;;;;;;5099781;28;20090;-67
2021/10/12 09:28:25;;;;;;;4.75;0.98;;;10.80;99.90;;;;;;5085684;28;20067;-67
2021/10/12 09:30:54;;;;;;;6.43;1.50;;;10.80;99.90;;;;;;5098429;28;20052;-66
2021/10/12 09:33:20;;;;;;;6.70;1.25;;;11.10;99.90;;;;;;5101369;28;20044;-67
2021/10/12 09:35:46;;;;;;;6.50;1.30;;;11.70;99.90;;;;;;5100283;28;20218;-66
2021/10/12 09:38:14;;;;;;;7.63;1.55;;;12.20;99.90;;;;;;5098982;28;20203;-66
2021/10/12 09:40:45;;;;;;;8.45;2.05;;;12.60;99.90;;;;;;5101328;28;20119;-66
2021/10/12 09:43:15;;;;;;;6.45;1.58;;;12.90;99.90;;;;;;5097612;28;20036;-67
2021/10/12 09:45:42;;;;;;;6.88;1.20;;;12.90;99.90;;;;;;5083434;28;20064;-66
2021/10/12 09:48:30;;;;;;;11.20;1.52;;;13.00;99.90;;;;;;5092399;28;20127;-66
2021/10/12 09:51:13;;;;;;;5.60;0.90;;;13.20;99.90;;;;;;5099327;28;20051;-66
2021/10/12 09:53:42;;;;;;;6.05;1.08;;;13.30;99.90;;;;;;5095107;28;20047;-67
2021/10/12 09:56:08;;;;;;;5.30;0.82;;;13.50;99.90;;;;;;5098894;28;20036;-66
2021/10/12 09:58:35;;;;;;;5.13;0.93;;;13.50;99.90;;;;;;5091935;28;20059;-66
2021/10/12 10:01:03;;;;;;;5.13;0.90;;;13.30;99.90;;;;;;5080309;28;20063;-66
2021/10/12 10:03:30;;;;;;;8.48;0.88;;;12.90;99.90;;;;;;5092003;28;20047;-65
2021/10/12 10:06:00;;;;;;;7.07;1.13;;;12.80;99.90;;;;;;5098554;28;20042;-66
2021/10/12 10:08:29;;;;;;;8.40;1.30;;;12.70;99.90;;;;;;5091804;28;20044;-66
2021/10/12 10:10:57;;;;;;;8.60;1.42;;;12.70;99.90;;;;;;5098783;28;20115;-67
2021/10/12 10:13:25;;;;;;;5.97;1.27;;;12.60;99.90;;;;;;5103847;28;20044;-66
2021/10/12 10:15:51;;;;;;;10.52;1.63;;;12.60;99.90;;;;;;5098194;28;20070;-67
2021/10/12 10:18:19;;;;;;;6.00;1.30;;;12.30;99.90;;;;;;5090844;28;20055;-66
2021/10/12 10:20:50;;;;;;;7.78;1.10;;;12.30;99.90;;;;;;5097164;28;20040;-66
2021/10/12 10:23:59;;;;;;;8.50;1.00;;;12.40;99.90;;;;;;5104247;28;20035;-66
2021/10/12 10:26:31;;;;;;;6.38;1.50;;;12.50;99.90;;;;;;5099997;28;20048;-67
2021/10/12 10:29:17;;;;;;;7.60;1.83;;;12.80;99.90;;;;;;5100651;28;20074;-66
2021/10/12 10:31:47;;;;;;;7.03;1.10;;;13.10;99.90;;;;;;5100204;28;20091;-67
2021/10/12 10:34:29;;;;;;;9.00;1.77;;;13.10;99.90;;;;;;5098915;28;20094;-66
2021/10/12 10:37:15;;;;;;;11.45;1.00;;;13.00;99.90;;;;;;5102211;28;20051;-66
2021/10/12 10:39:55;;;;;;;5.47;1.00;;;12.90;99.90;;;;;;5078436;28;20607;-66
2021/10/12 10:42:27;;;;;;;7.47;0.98;;;12.90;99.90;;;;;;5092743;28;20067;-66
2021/10/12 10:44:57;;;;;;;4.03;1.27;;;12.90;99.90;;;;;;5093123;28;20127;-66
2021/10/12 10:47:41;;;;;;;6.75;1.77;;;12.90;99.90;;;;;;5096030;28;20507;-66
2021/10/12 10:50:24;;;;;;;6.57;1.02;;;12.80;99.90;;;;;;5093371;28;20044;-66
2021/10/12 10:52:51;;;;;;;12.18;1.27;;;13.00;99.90;;;;;;5090832;28;20043;-66
2021/10/12 10:55:25;;;;;;;7.07;1.13;;;13.10;99.90;;;;;;5073983;28;20131;-67
2021/10/12 10:58:06;;;;;;;9.73;1.33;;;13.30;99.90;;;;;;5097307;28;20086;-67
2021/10/12 11:00:38;;;;;;;8.75;1.23;;;13.70;99.90;;;;;;5090886;28;20112;-66
2021/10/12 11:03:04;;;;;;;2.97;0.85;;;13.90;99.90;;;;;;5091406;28;20044;-66
2021/10/12 11:05:31;;;;;;;5.72;1.40;;;13.30;99.90;;;;;;5091458;28;20048;-66
2021/10/12 11:08:10;;;;;;;3.55;1.17;;;12.60;99.90;;;;;;5096616;28;20583;-65
2021/10/12 11:10:36;;;;;;;6.28;1.05;;;11.90;99.90;;;;;;5091751;28;20045;-65
2021/10/12 11:13:03;;;;;;;4.18;1.08;;;11.40;99.90;;;;;;5095927;28;20069;-65
2021/10/12 11:15:29;;;;;;;5.90;1.63;;;11.30;99.90;;;;;;5093706;28;20045;-65
2021/10/12 11:18:10;;;;;;;9.98;1.63;;;11.20;99.90;;;;;;5094285;28;20055;-65
2021/10/12 11:20:54;;;;;;;10.05;1.75;;;11.30;99.90;;;;;;5093291;28;20119;-65
2021/10/12 11:23:35;;;;;;;6.82;1.10;;;11.40;99.90;;;;;;5096523;28;20059;-65
2021/10/12 11:26:14;;;;;;;15.40;1.75;;;11.50;99.90;;;;;;5089973;28;20040;-65
2021/10/12 11:28:47;;;;;;;4.05;1.10;;;11.70;99.90;;;;;;5091009;28;20047;-65
2021/10/12 11:31:18;;;;;;;13.80;1.75;;;12.40;99.90;;;;;;5089714;28;20044;-66
2021/10/12 11:33:49;;;;;;;4.88;0.80;;;13.20;99.90;;;;;;5102834;28;20143;-65
2021/10/12 11:36:17;;;;;;;7.50;1.50;;;13.60;99.90;;;;;;5103278;28;20071;-66
2021/10/12 11:38:56;;;;;;;9.02;1.38;;;13.60;99.90;;;;;;5090432;28;20075;-65
2021/10/12 11:41:34;;;;;;;7.43;1.35;;;13.60;99.90;;;;;;5102697;28;20044;-65
2021/10/12 11:44:02;;;;;;;6.37;1.10;;;13.60;99.90;;;;;;5091460;28;20043;-66
2021/10/12 11:46:30;;;;;;;10.40;1.10;;;13.70;99.90;;;;;;5099223;28;20060;-66
2021/10/12 11:48:57;;;;;;;9.07;1.48;;;13.30;99.90;;;;;;5091876;28;20071;-66
2021/10/12 11:51:26;;;;;;;7.37;1.23;;;13.20;99.90;;;;;;5098861;28;20399;-66
2021/10/12 11:53:54;;;;;;;5.00;1.30;;;12.70;99.90;;;;;;5091852;28;20389;-66
2021/10/12 11:56:23;;;;;;;10.63;1.75;;;12.30;99.90;;;;;;5098031;28;20051;-66
2021/10/12 11:58:56;;;;;;;8.77;1.85;;;12.20;99.90;;;;;;5091849;28;20049;-66
2021/10/12 12:01:37;;;;;;;9.13;1.63;;;12.10;99.90;;;;;;5090138;28;20095;-66
2021/10/12 12:04:04;;;;;;;4.20;1.30;;;12.20;99.90;;;;;;5091637;28;20045;-66
2021/10/12 12:06:31;;;;;;;;;;;12.10;99.90;;;;;;5098679;28;20048;-66
2021/10/12 12:09:01;;;;;;;6.60;1.35;;;11.90;99.90;;;;;;5074180;28;19924;-66
2021/10/12 12:11:29;;;;;;;9.85;1.40;;;12.00;99.90;;;;;;5097412;28;20074;-66
2021/10/12 12:13:57;;;;;;;9.40;2.17;;;11.90;99.90;;;;;;5093020;28;20033;-66
2021/10/12 12:16:24;;;;;;;3.05;0.90;;;11.90;99.90;;;;;;5096745;28;20052;-66
2021/10/12 12:18:51;;;;;;;4.57;1.30;;;11.80;99.90;;;;;;5097981;28;20044;-66
2021/10/12 12:21:46;;;;;;;9.98;1.33;;;11.90;99.90;;;;;;5097634;28;20053;-66
2021/10/12 12:24:18;;;;;;;7.82;2.97;;;12.00;99.90;;;;;;5071007;28;20056;-66
2021/10/12 12:26:44;;;;;;;8.95;1.88;;;12.20;99.90;;;;;;5099952;28;20044;-66
2021/10/12 12:29:21;;;;;;;6.35;1.60;;;12.60;99.90;;;;;;5078340;28;20048;-66
2021/10/12 12:31:49;;;;;;;8.30;1.73;;;13.30;99.90;;;;;;5099246;28;20063;-66
2021/10/12 12:34:34;;;;;;;9.73;1.48;;;14.10;99.90;;;;;;5096013;28;20041;-66
2021/10/12 12:37:01;;;;;;;9.18;1.45;;;14.80;99.90;;;;;;5100454;28;20055;-67
2021/10/12 12:39:41;;;;;;;9.77;1.60;;;15.20;99.90;;;;;;5094395;28;20052;-67
2021/10/12 12:42:27;;;;;;;5.03;1.42;;;15.50;99.90;;;;;;5093004;28;20074;-67
2021/10/12 12:45:11;;;;;;;6.20;1.15;;;15.70;99.90;;;;;;5102724;28;20051;-67
2021/10/12 12:47:38;;;;;;;8.98;1.90;;;15.60;99.90;;;;;;5095863;28;20074;-67
2021/10/12 12:50:11;;;;;;;5.00;1.55;;;15.90;99.90;;;;;;5085269;28;20134;-67